createdAt,value
2018-09-08T00:00:17.449Z,24.00
2018-09-08T00:01:21.956Z,24.00
2018-09-08T00:02:26.503Z,24.00
2018-09-08T00:03:30.823Z,24.00
2018-09-08T00:04:35.270Z,24.00
2018-09-08T00:05:39.779Z,24.00
2018-09-08T00:06:44.071Z,24.00
2018-09-08T00:07:48.542Z,24.00
2018-09-08T00:08:52.870Z,24.00
2018-09-08T00:09:57.289Z,24.00
2018-09-08T00:11:01.845Z,24.00
2018-09-08T00:12:06.482Z,24.00
2018-09-08T00:13:10.789Z,24.00
2018-09-08T00:14:15.062Z,24.00
2018-09-08T00:15:19.345Z,24.00
2018-09-08T00:16:23.976Z,24.00
2018-09-08T00:17:28.274Z,24.00
2018-09-08T00:18:32.590Z,24.00
2018-09-08T00:19:37.126Z,24.00
2018-09-08T00:20:41.609Z,24.00
2018-09-08T00:21:45.930Z,24.00
2018-09-08T00:22:50.220Z,24.00
2018-09-08T00:23:54.816Z,24.00
2018-09-08T00:24:59.360Z,24.00
2018-09-08T00:26:03.729Z,24.00
2018-09-08T00:27:08.068Z,24.00
2018-09-08T00:28:12.626Z,24.00
2018-09-08T00:29:17.402Z,24.00
2018-09-08T00:30:21.956Z,24.00
2018-09-08T00:31:26.504Z,24.00
2018-09-08T00:32:30.868Z,24.00
2018-09-08T00:33:35.258Z,24.00
2018-09-08T00:34:39.874Z,24.00
2018-09-08T00:35:44.401Z,24.00
2018-09-08T00:36:48.883Z,23.90
2018-09-08T00:37:53.392Z,24.00
2018-09-08T00:38:57.904Z,24.00
2018-09-08T00:40:02.325Z,24.00
2018-09-08T00:41:06.915Z,24.00
2018-09-08T00:42:11.223Z,23.90
2018-09-08T00:43:15.570Z,24.00
2018-09-08T00:44:19.887Z,24.00
2018-09-08T00:45:24.377Z,24.00
2018-09-08T00:46:28.887Z,24.00
2018-09-08T00:47:33.466Z,24.00
2018-09-08T00:48:37.798Z,24.00
2018-09-08T00:49:42.257Z,24.00
2018-09-08T00:50:46.505Z,24.00
2018-09-08T00:51:51.011Z,24.00
2018-09-08T00:52:55.262Z,24.00
2018-09-08T00:53:59.816Z,24.00
2018-09-08T00:55:04.097Z,24.00
2018-09-08T00:56:08.523Z,24.00
2018-09-08T00:57:13.024Z,24.00
2018-09-08T00:58:17.495Z,24.00
2018-09-08T00:59:21.784Z,24.00
2018-09-08T01:00:26.275Z,24.00
2018-09-08T01:01:30.726Z,24.00
2018-09-08T01:02:34.993Z,24.00
2018-09-08T01:03:39.596Z,24.00
2018-09-08T01:04:43.863Z,24.00
2018-09-08T01:05:48.361Z,24.00
2018-09-08T01:06:52.963Z,24.00
2018-09-08T01:07:57.515Z,23.90
2018-09-08T01:09:01.963Z,24.00
2018-09-08T01:10:06.328Z,24.00
2018-09-08T01:11:10.674Z,24.00
2018-09-08T01:12:15.042Z,23.90
2018-09-08T01:13:19.583Z,23.90
2018-09-08T01:14:23.904Z,23.90
2018-09-08T01:15:28.515Z,23.90
2018-09-08T01:16:33.116Z,23.90
2018-09-08T01:17:37.862Z,24.00
2018-09-08T01:18:42.152Z,23.90
2018-09-08T01:19:46.510Z,23.90
2018-09-08T01:20:51.010Z,23.90
2018-09-08T01:21:55.512Z,23.90
2018-09-08T01:22:59.852Z,23.90
2018-09-08T01:24:04.412Z,23.90
2018-09-08T01:25:08.824Z,23.90
2018-09-08T01:26:13.099Z,23.90
2018-09-08T01:27:17.419Z,23.90
2018-09-08T01:28:21.976Z,23.90
2018-09-08T01:29:26.976Z,24.00
2018-09-08T01:30:31.303Z,23.90
2018-09-08T01:31:35.900Z,23.90
2018-09-08T01:32:40.471Z,23.90
2018-09-08T01:33:44.994Z,23.90
2018-09-08T01:34:49.426Z,23.90
2018-09-08T01:35:53.785Z,23.90
2018-09-08T01:36:58.390Z,23.90
2018-09-08T01:38:02.858Z,23.90
2018-09-08T01:39:07.315Z,23.90
2018-09-08T01:40:11.778Z,23.90
2018-09-08T01:41:16.427Z,23.90
2018-09-08T01:42:20.837Z,23.90
2018-09-08T01:43:25.239Z,23.90
2018-09-08T01:44:29.799Z,23.90
2018-09-08T01:45:34.254Z,23.90
2018-09-08T01:46:38.618Z,23.90
2018-09-08T01:47:43.131Z,23.90
2018-09-08T01:48:47.675Z,23.90
2018-09-08T01:49:52.177Z,23.90
2018-09-08T01:50:56.733Z,23.90
2018-09-08T01:52:01.207Z,23.90
2018-09-08T01:53:05.759Z,23.90
2018-09-08T01:54:10.328Z,23.90
2018-09-08T01:55:14.625Z,23.90
2018-09-08T01:56:18.962Z,23.90
2018-09-08T01:57:23.300Z,23.90
2018-09-08T01:58:27.913Z,23.90
2018-09-08T01:59:32.443Z,23.90
2018-09-08T02:00:36.781Z,23.90
2018-09-08T02:01:41.353Z,23.90
2018-09-08T02:02:45.672Z,23.90
2018-09-08T02:03:50.211Z,23.90
2018-09-08T02:04:54.745Z,23.90
2018-09-08T02:05:59.089Z,23.90
2018-09-08T02:07:03.598Z,23.90
2018-09-08T02:08:07.865Z,23.90
2018-09-08T02:09:12.201Z,23.90
2018-09-08T02:10:16.484Z,23.90
2018-09-08T02:11:21.170Z,23.90
2018-09-08T02:12:25.447Z,23.90
2018-09-08T02:13:29.759Z,23.90
2018-09-08T02:14:34.032Z,23.90
2018-09-08T02:15:38.316Z,23.90
2018-09-08T02:16:42.824Z,23.90
2018-09-08T02:17:47.048Z,23.90
2018-09-08T02:18:51.323Z,23.90
2018-09-08T02:19:55.809Z,23.90
2018-09-08T02:21:00.351Z,23.90
2018-09-08T02:22:04.954Z,23.90
2018-09-08T02:23:09.468Z,23.90
2018-09-08T02:24:14.016Z,23.90
2018-09-08T02:25:18.442Z,23.90
2018-09-08T02:26:22.786Z,23.90
2018-09-08T02:27:27.406Z,23.90
2018-09-08T02:28:31.970Z,23.90
2018-09-08T02:29:36.335Z,23.90
2018-09-08T02:30:40.948Z,23.90
2018-09-08T02:31:45.298Z,23.90
2018-09-08T02:32:49.722Z,23.90
2018-09-08T02:33:54.136Z,23.90
2018-09-08T02:34:58.527Z,23.90
2018-09-08T02:36:03.048Z,23.90
2018-09-08T02:37:07.445Z,23.90
2018-09-08T02:38:11.852Z,23.90
2018-09-08T02:39:16.272Z,23.90
2018-09-08T02:40:20.929Z,23.90
2018-09-08T02:41:25.337Z,23.90
2018-09-08T02:42:29.884Z,23.90
2018-09-08T02:43:34.378Z,23.90
2018-09-08T02:44:38.842Z,23.90
2018-09-08T02:45:43.347Z,23.90
2018-09-08T02:46:47.706Z,23.90
2018-09-08T02:47:52.121Z,23.90
2018-09-08T02:48:56.681Z,23.90
2018-09-08T02:50:01.173Z,23.90
2018-09-08T02:51:05.623Z,23.90
2018-09-08T02:52:09.902Z,23.90
2018-09-08T02:53:14.178Z,23.90
2018-09-08T02:54:18.399Z,23.90
2018-09-08T02:55:22.691Z,23.90
2018-09-08T02:56:26.931Z,23.90
2018-09-08T02:57:31.221Z,23.90
2018-09-08T02:58:35.726Z,23.90
2018-09-08T02:59:39.998Z,23.90
2018-09-08T03:00:44.316Z,23.90
2018-09-08T03:01:48.558Z,23.90
2018-09-08T03:02:52.789Z,23.90
2018-09-08T03:03:57.005Z,23.90
2018-09-08T03:05:01.287Z,23.90
2018-09-08T03:06:05.548Z,23.80
2018-09-08T03:07:09.798Z,23.90
2018-09-08T03:08:14.070Z,23.90
2018-09-08T03:09:18.521Z,23.90
2018-09-08T03:10:23.018Z,23.90
2018-09-08T03:11:27.372Z,23.90
2018-09-08T03:12:31.889Z,23.80
2018-09-08T03:13:36.242Z,23.80
2018-09-08T03:14:40.610Z,23.80
2018-09-08T03:15:45.221Z,23.90
2018-09-08T03:16:49.724Z,23.80
2018-09-08T03:17:54.206Z,23.90
2018-09-08T03:18:58.581Z,23.80
2018-09-08T03:20:03.174Z,23.80
2018-09-08T03:21:07.556Z,23.90
2018-09-08T03:22:11.915Z,23.80
2018-09-08T03:23:16.380Z,23.80
2018-09-08T03:24:20.771Z,23.80
2018-09-08T03:25:25.133Z,23.80
2018-09-08T03:26:29.777Z,23.90
2018-09-08T03:27:34.257Z,23.80
2018-09-08T03:28:38.864Z,23.80
2018-09-08T03:29:43.397Z,23.80
2018-09-08T03:30:47.966Z,23.80
2018-09-08T03:31:52.431Z,23.80
2018-09-08T03:32:56.990Z,23.80
2018-09-08T03:34:01.330Z,23.90
2018-09-08T03:35:05.680Z,23.80
2018-09-08T03:36:10.273Z,23.80
2018-09-08T03:37:14.827Z,23.80
2018-09-08T03:38:19.130Z,23.90
2018-09-08T03:39:23.402Z,23.80
2018-09-08T03:40:27.645Z,23.80
2018-09-08T03:41:31.968Z,23.80
2018-09-08T03:42:36.362Z,23.80
2018-09-08T03:43:40.849Z,23.80
2018-09-08T03:44:45.094Z,23.80
2018-09-08T03:45:49.566Z,23.80
2018-09-08T03:46:54.006Z,23.80
2018-09-08T03:47:58.474Z,23.80
2018-09-08T03:49:02.951Z,23.80
2018-09-08T03:50:07.430Z,23.80
2018-09-08T03:51:11.926Z,23.80
2018-09-08T03:52:16.351Z,23.80
2018-09-08T03:53:20.669Z,23.90
2018-09-08T03:54:25.127Z,23.80
2018-09-08T03:55:29.444Z,23.80
2018-09-08T03:56:33.720Z,23.80
2018-09-08T03:57:49.213Z,23.80
2018-09-08T03:58:53.650Z,23.80
2018-09-08T03:59:57.999Z,23.80
2018-09-08T04:01:02.351Z,23.80
2018-09-08T04:02:06.790Z,23.80
2018-09-08T04:03:11.170Z,23.80
2018-09-08T04:04:15.597Z,23.80
2018-09-08T04:05:20.085Z,23.80
2018-09-08T04:06:24.596Z,23.90
2018-09-08T04:07:29.156Z,23.80
2018-09-08T04:08:33.529Z,23.80
2018-09-08T04:09:38.012Z,23.80
2018-09-08T04:10:42.452Z,23.80
2018-09-08T04:11:46.816Z,23.80
2018-09-08T04:12:51.099Z,23.80
2018-09-08T04:13:55.810Z,23.80
2018-09-08T04:15:00.433Z,23.80
2018-09-08T04:16:04.993Z,23.80
2018-09-08T04:17:09.422Z,23.80
2018-09-08T04:18:14.032Z,23.80
2018-09-08T04:19:18.522Z,23.80
2018-09-08T04:20:22.940Z,23.80
2018-09-08T04:21:27.644Z,23.80
2018-09-08T04:22:32.043Z,23.80
2018-09-08T04:23:36.667Z,23.80
2018-09-08T04:24:41.217Z,23.80
2018-09-08T04:25:45.714Z,23.80
2018-09-08T04:26:50.102Z,23.80
2018-09-08T04:27:54.489Z,23.80
2018-09-08T04:28:58.924Z,23.80
2018-09-08T04:30:03.624Z,23.80
2018-09-08T04:31:08.005Z,23.80
2018-09-08T04:32:12.618Z,23.80
2018-09-08T04:33:17.207Z,23.80
2018-09-08T04:34:21.623Z,23.80
2018-09-08T04:35:26.005Z,23.80
2018-09-08T04:36:30.562Z,23.80
2018-09-08T04:37:35.073Z,23.80
2018-09-08T04:38:39.443Z,23.80
2018-09-08T04:39:43.980Z,23.80
2018-09-08T04:40:48.373Z,23.80
2018-09-08T04:41:52.975Z,23.80
2018-09-08T04:42:57.311Z,23.80
2018-09-08T04:44:01.719Z,23.80
2018-09-08T04:45:06.368Z,23.80
2018-09-08T04:46:10.733Z,23.80
2018-09-08T04:47:15.367Z,23.80
2018-09-08T04:48:19.889Z,23.80
2018-09-08T04:49:24.520Z,23.80
2018-09-08T04:50:29.030Z,23.80
2018-09-08T04:51:33.449Z,23.80
2018-09-08T04:52:37.889Z,23.80
2018-09-08T04:53:42.606Z,23.80
2018-09-08T04:54:47.179Z,23.80
2018-09-08T04:55:51.824Z,23.80
2018-09-08T04:56:56.402Z,23.80
2018-09-08T04:58:00.877Z,23.80
2018-09-08T04:59:05.454Z,23.80
2018-09-08T05:00:11.290Z,23.80
2018-09-08T05:01:15.811Z,23.80
2018-09-08T05:02:20.262Z,23.80
2018-09-08T05:03:24.692Z,23.80
2018-09-08T05:04:29.131Z,23.80
2018-09-08T05:05:33.568Z,23.80
2018-09-08T05:06:37.917Z,23.80
2018-09-08T05:07:42.328Z,23.80
2018-09-08T05:08:46.738Z,23.80
2018-09-08T05:09:51.054Z,23.80
2018-09-08T05:10:55.492Z,23.80
2018-09-08T05:11:59.876Z,23.80
2018-09-08T05:13:04.272Z,23.80
2018-09-08T05:14:08.629Z,23.80
2018-09-08T05:15:12.956Z,23.80
2018-09-08T05:16:17.416Z,23.80
2018-09-08T05:17:21.764Z,23.80
2018-09-08T05:18:26.231Z,23.70
2018-09-08T05:19:30.521Z,23.70
2018-09-08T05:20:34.852Z,23.70
2018-09-08T05:21:39.107Z,23.70
2018-09-08T05:22:43.402Z,23.70
2018-09-08T05:23:47.693Z,23.70
2018-09-08T05:24:52.232Z,23.70
2018-09-08T05:25:56.559Z,23.70
2018-09-08T05:27:01.035Z,23.70
2018-09-08T05:28:05.340Z,23.70
2018-09-08T05:29:09.802Z,23.60
2018-09-08T05:30:14.189Z,23.70
2018-09-08T05:31:18.677Z,23.70
2018-09-08T05:32:23.205Z,23.60
2018-09-08T05:33:27.745Z,23.70
2018-09-08T05:34:32.143Z,23.60
2018-09-08T05:35:36.504Z,23.60
2018-09-08T05:36:40.999Z,23.60
2018-09-08T05:37:45.339Z,23.60
2018-09-08T05:38:49.607Z,23.60
2018-09-08T05:39:53.922Z,23.60
2018-09-08T05:40:58.456Z,23.60
2018-09-08T05:42:02.722Z,23.60
2018-09-08T05:43:07.333Z,23.60
2018-09-08T05:44:11.572Z,23.60
2018-09-08T05:45:16.158Z,23.60
2018-09-08T05:46:20.478Z,23.60
2018-09-08T05:47:24.844Z,23.60
2018-09-08T05:48:29.323Z,23.60
2018-09-08T05:49:33.589Z,23.60
2018-09-08T05:50:38.019Z,23.60
2018-09-08T05:51:42.308Z,23.60
2018-09-08T05:52:46.767Z,23.60
2018-09-08T05:53:51.321Z,23.60
2018-09-08T05:54:55.670Z,23.60
2018-09-08T05:56:00.159Z,23.50
2018-09-08T05:57:04.714Z,23.60
2018-09-08T05:58:09.100Z,23.50
2018-09-08T05:59:13.574Z,23.50
2018-09-08T06:00:18.224Z,23.50
2018-09-08T06:01:22.753Z,23.50
2018-09-08T06:02:27.192Z,23.50
2018-09-08T06:03:31.688Z,23.50
2018-09-08T06:04:36.084Z,23.50
2018-09-08T06:05:40.528Z,23.50
2018-09-08T06:06:45.332Z,23.50
2018-09-08T06:07:49.948Z,23.50
2018-09-08T06:08:54.460Z,23.50
2018-09-08T06:09:58.904Z,23.50
2018-09-08T06:11:03.477Z,23.60
2018-09-08T06:12:07.897Z,23.60
2018-09-08T06:13:12.451Z,23.60
2018-09-08T06:14:16.771Z,23.60
2018-09-08T06:15:21.183Z,23.50
2018-09-08T06:16:25.610Z,23.50
2018-09-08T06:17:30.167Z,23.50
2018-09-08T06:18:34.476Z,23.50
2018-09-08T06:19:38.916Z,23.50
2018-09-08T06:20:43.395Z,23.50
2018-09-08T06:21:47.833Z,23.50
2018-09-08T06:22:52.394Z,23.50
2018-09-08T06:23:57.057Z,23.50
2018-09-08T06:25:01.563Z,23.50
2018-09-08T06:26:05.810Z,23.50
2018-09-08T06:27:10.083Z,23.50
2018-09-08T06:28:14.659Z,23.50
2018-09-08T06:29:19.110Z,23.50
2018-09-08T06:30:23.509Z,23.50
2018-09-08T06:31:28.013Z,23.50
2018-09-08T06:32:32.289Z,23.50
2018-09-08T06:33:36.668Z,23.60
2018-09-08T06:34:41.119Z,23.60
2018-09-08T06:35:45.560Z,23.60
2018-09-08T06:36:50.024Z,23.60
2018-09-08T06:37:54.288Z,23.60
2018-09-08T06:38:58.705Z,23.60
2018-09-08T06:40:03.157Z,23.50
2018-09-08T06:41:07.360Z,23.50
2018-09-08T06:42:11.819Z,23.50
2018-09-08T06:43:16.078Z,23.50
2018-09-08T06:44:20.313Z,23.50
2018-09-08T06:45:24.781Z,23.50
2018-09-08T06:46:29.325Z,23.50
2018-09-08T06:47:33.667Z,23.50
2018-09-08T06:48:38.097Z,23.50
2018-09-08T06:49:42.524Z,23.50
2018-09-08T06:50:47.036Z,23.50
2018-09-08T06:51:51.416Z,23.50
2018-09-08T06:52:55.937Z,23.50
2018-09-08T06:54:00.533Z,23.50
2018-09-08T06:55:05.159Z,23.50
2018-09-08T06:56:09.586Z,23.50
2018-09-08T06:57:14.879Z,23.50
2018-09-08T06:58:19.381Z,23.50
2018-09-08T06:59:23.749Z,23.50
2018-09-08T07:00:28.067Z,23.50
2018-09-08T07:01:32.586Z,23.50
2018-09-08T07:02:36.919Z,23.50
2018-09-08T07:03:41.422Z,23.50
2018-09-08T07:04:45.787Z,23.50
2018-09-08T07:05:50.201Z,23.60
2018-09-08T07:06:54.721Z,23.60
2018-09-08T07:07:59.140Z,23.60
2018-09-08T07:09:04.551Z,23.60
2018-09-08T07:10:09.257Z,23.60
2018-09-08T07:11:13.607Z,23.60
2018-09-08T07:12:18.044Z,23.60
2018-09-08T07:13:22.434Z,23.60
2018-09-08T07:14:26.800Z,23.60
2018-09-08T07:15:31.303Z,23.60
2018-09-08T07:16:35.824Z,23.60
2018-09-08T07:17:40.203Z,23.60
2018-09-08T07:18:44.569Z,23.60
2018-09-08T07:19:48.968Z,23.60
2018-09-08T07:20:53.514Z,23.60
2018-09-08T07:21:57.870Z,23.70
2018-09-08T07:23:02.384Z,23.60
2018-09-08T07:24:06.967Z,23.60
2018-09-08T07:25:11.504Z,23.60
2018-09-08T07:26:16.157Z,23.60
2018-09-08T07:27:20.703Z,23.70
2018-09-08T07:28:26.725Z,23.70
2018-09-08T07:29:31.193Z,23.70
2018-09-08T07:30:35.554Z,23.70
2018-09-08T07:31:40.107Z,23.70
2018-09-08T07:32:44.468Z,23.70
2018-09-08T07:33:48.843Z,23.70
2018-09-08T07:34:53.157Z,23.70
2018-09-08T07:35:57.469Z,23.70
2018-09-08T07:37:02.357Z,23.60
2018-09-08T07:38:06.953Z,23.60
2018-09-08T07:39:11.373Z,23.60
2018-09-08T07:40:15.639Z,23.60
2018-09-08T07:41:20.247Z,23.60
2018-09-08T07:42:24.616Z,23.50
2018-09-08T07:43:29.165Z,23.50
2018-09-08T07:44:33.723Z,23.40
2018-09-08T07:45:38.283Z,23.30
2018-09-08T07:46:42.649Z,23.20
2018-09-08T07:47:47.215Z,23.20
2018-09-08T07:48:52.001Z,23.10
2018-09-08T07:49:56.651Z,23.20
2018-09-08T07:51:01.045Z,23.20
2018-09-08T07:52:05.565Z,23.20
2018-09-08T07:53:09.994Z,23.20
2018-09-08T07:54:14.435Z,23.20
2018-09-08T07:55:18.956Z,23.30
2018-09-08T07:56:23.493Z,23.20
2018-09-08T07:57:28.343Z,23.20
2018-09-08T07:58:32.961Z,23.20
2018-09-08T07:59:37.555Z,23.10
2018-09-08T08:00:42.100Z,23.10
2018-09-08T08:01:46.737Z,23.10
2018-09-08T08:02:51.245Z,23.10
2018-09-08T08:03:55.656Z,23.10
2018-09-08T08:05:00.351Z,23.10
2018-09-08T08:06:04.995Z,23.10
2018-09-08T08:07:09.499Z,23.10
2018-09-08T08:08:13.881Z,23.10
2018-09-08T08:09:18.470Z,23.10
2018-09-08T08:10:23.243Z,23.10
2018-09-08T08:11:27.757Z,23.10
2018-09-08T08:12:32.317Z,23.20
2018-09-08T08:13:36.773Z,23.10
2018-09-08T08:14:41.545Z,23.10
2018-09-08T08:15:45.879Z,23.00
2018-09-08T08:16:50.408Z,23.00
2018-09-08T08:17:55.563Z,23.00
2018-09-08T08:18:59.943Z,23.00
2018-09-08T08:20:04.852Z,23.00
2018-09-08T08:21:09.731Z,23.00
2018-09-08T08:22:14.373Z,23.00
2018-09-08T08:23:18.993Z,23.00
2018-09-08T08:24:23.541Z,23.00
2018-09-08T08:25:28.555Z,23.00
2018-09-08T08:26:33.108Z,23.00
2018-09-08T08:27:38.369Z,23.10
2018-09-08T08:28:42.982Z,23.10
2018-09-08T08:29:47.341Z,23.10
2018-09-08T08:30:51.613Z,23.10
2018-09-08T08:31:56.131Z,23.10
2018-09-08T08:33:00.740Z,23.20
2018-09-08T08:34:05.091Z,23.10
2018-09-08T08:35:09.872Z,23.10
2018-09-08T08:36:14.416Z,23.10
2018-09-08T08:37:20.059Z,23.10
2018-09-08T08:38:24.517Z,23.10
2018-09-08T08:39:30.481Z,23.10
2018-09-08T08:40:35.230Z,23.10
2018-09-08T08:41:39.963Z,23.00
2018-09-08T08:42:44.767Z,23.10
2018-09-08T08:43:49.639Z,23.10
2018-09-08T08:44:54.177Z,23.00
2018-09-08T08:45:58.849Z,22.90
2018-09-08T08:47:03.282Z,23.00
2018-09-08T08:48:07.671Z,23.00
2018-09-08T08:49:12.074Z,23.00
2018-09-08T08:50:17.396Z,23.00
2018-09-08T08:51:22.212Z,23.10
2018-09-08T08:52:27.003Z,23.10
2018-09-08T08:53:31.399Z,23.10
2018-09-08T08:54:37.331Z,23.20
2018-09-08T08:55:41.802Z,23.10
2018-09-08T08:56:47.016Z,23.20
2018-09-08T08:57:51.367Z,23.10
2018-09-08T08:58:55.674Z,23.00
2018-09-08T09:00:00.162Z,23.00
2018-09-08T09:01:04.786Z,22.90
2018-09-08T09:02:09.545Z,22.80
2018-09-08T09:03:13.902Z,22.80
2018-09-08T09:04:18.291Z,22.80
2018-09-08T09:05:22.632Z,22.80
2018-09-08T09:06:27.081Z,22.80
2018-09-08T09:07:31.624Z,22.90
2018-09-08T09:08:36.515Z,22.90
2018-09-08T09:09:40.579Z,23.00
2018-09-08T09:10:45.298Z,23.00
2018-09-08T09:11:50.136Z,23.00
2018-09-08T09:12:54.599Z,23.00
2018-09-08T09:13:58.822Z,23.00
2018-09-08T09:15:04.558Z,23.10
2018-09-08T09:16:08.854Z,23.10
2018-09-08T09:17:13.508Z,23.20
2018-09-08T09:18:18.305Z,23.20
2018-09-08T09:19:22.596Z,23.20
2018-09-08T09:20:26.984Z,23.30
2018-09-08T09:21:31.844Z,23.30
2018-09-08T09:22:36.359Z,23.30
2018-09-08T09:23:40.622Z,23.30
2018-09-08T09:24:45.473Z,23.30
2018-09-08T09:25:49.485Z,23.30
2018-09-08T09:26:54.094Z,23.30
2018-09-08T09:27:58.723Z,23.30
2018-09-08T09:29:03.057Z,23.30
2018-09-08T09:30:07.497Z,23.40
2018-09-08T09:31:11.987Z,23.40
2018-09-08T09:32:16.555Z,23.40
2018-09-08T09:33:21.064Z,23.40
2018-09-08T09:34:25.552Z,23.40
2018-09-08T09:35:30.055Z,23.40
2018-09-08T09:36:34.533Z,23.40
2018-09-08T09:37:39.020Z,23.40
2018-09-08T09:38:43.286Z,23.40
2018-09-08T09:39:47.653Z,23.40
2018-09-08T09:40:52.053Z,23.40
2018-09-08T09:41:56.518Z,23.40
2018-09-08T09:43:00.847Z,23.40
2018-09-08T09:44:05.463Z,23.50
2018-09-08T09:45:09.818Z,23.50
2018-09-08T09:46:14.380Z,23.50
2018-09-08T09:47:18.820Z,23.50
2018-09-08T09:48:23.262Z,23.50
2018-09-08T09:49:27.621Z,23.50
2018-09-08T09:50:32.136Z,23.50
2018-09-08T09:51:36.580Z,23.50
2018-09-08T09:52:41.077Z,23.50
2018-09-08T09:53:45.509Z,23.40
2018-09-08T09:54:50.192Z,23.30
2018-09-08T09:55:54.560Z,23.30
2018-09-08T09:56:59.143Z,23.30
2018-09-08T09:58:03.441Z,23.30
2018-09-08T09:59:07.942Z,23.30
2018-09-08T10:00:12.289Z,23.30
2018-09-08T10:01:16.834Z,23.30
2018-09-08T10:02:21.464Z,23.20
2018-09-08T10:03:25.848Z,23.20
2018-09-08T10:04:30.233Z,23.20
2018-09-08T10:05:34.701Z,23.20
2018-09-08T10:06:39.325Z,23.20
2018-09-08T10:07:43.689Z,23.20
2018-09-08T10:08:48.256Z,23.20
2018-09-08T10:09:52.633Z,23.20
2018-09-08T10:10:57.274Z,23.30
2018-09-08T10:12:01.952Z,23.30
2018-09-08T10:13:06.341Z,23.40
2018-09-08T10:14:10.889Z,23.40
2018-09-08T10:15:15.264Z,23.40
2018-09-08T10:16:19.688Z,23.40
2018-09-08T10:17:24.085Z,23.50
2018-09-08T10:18:28.626Z,23.50
2018-09-08T10:19:33.103Z,23.50
2018-09-08T10:20:37.613Z,23.50
2018-09-08T10:21:42.072Z,23.50
2018-09-08T10:22:46.613Z,23.50
2018-09-08T10:24:04.343Z,23.50
2018-09-08T10:24:55.348Z,23.50
2018-09-08T10:25:59.658Z,23.50
2018-09-08T10:27:04.188Z,23.50
2018-09-08T10:28:08.666Z,23.50
2018-09-08T10:29:13.176Z,23.50
2018-09-08T10:30:17.568Z,23.50
2018-09-08T10:31:21.991Z,23.50
2018-09-08T10:32:26.288Z,23.50
2018-09-08T10:33:30.697Z,23.50
2018-09-08T10:34:34.952Z,23.50
2018-09-08T10:35:39.319Z,23.50
2018-09-08T10:36:43.916Z,23.50
2018-09-08T10:37:48.366Z,23.50
2018-09-08T10:38:52.656Z,23.50
2018-09-08T10:39:57.095Z,23.50
2018-09-08T10:41:01.458Z,23.60
2018-09-08T10:42:05.841Z,23.50
2018-09-08T10:43:10.119Z,23.50
2018-09-08T10:44:14.404Z,23.50
2018-09-08T10:45:18.845Z,23.50
2018-09-08T10:46:23.200Z,23.50
2018-09-08T10:47:27.530Z,23.50
2018-09-08T10:48:31.841Z,23.50
2018-09-08T10:49:36.118Z,23.50
2018-09-08T10:50:40.407Z,23.50
2018-09-08T10:51:44.846Z,23.50
2018-09-08T10:52:49.446Z,23.50
2018-09-08T10:53:53.899Z,23.50
2018-09-08T10:54:58.224Z,23.50
2018-09-08T10:56:02.488Z,23.50
2018-09-08T10:57:06.825Z,23.50
2018-09-08T10:58:11.094Z,23.50
2018-09-08T10:59:15.360Z,23.50
2018-09-08T11:00:19.768Z,23.50
2018-09-08T11:01:24.166Z,23.50
2018-09-08T11:02:28.864Z,23.50
2018-09-08T11:03:33.014Z,23.50
2018-09-08T11:04:37.334Z,23.50
2018-09-08T11:05:41.659Z,23.60
2018-09-08T11:06:46.123Z,23.50
2018-09-08T11:07:50.544Z,23.50
2018-09-08T11:08:55.019Z,23.50
2018-09-08T11:09:59.364Z,23.50
2018-09-08T11:11:03.605Z,23.50
2018-09-08T11:12:07.854Z,23.50
2018-09-08T11:13:12.291Z,23.60
2018-09-08T11:14:16.751Z,23.50
2018-09-08T11:15:21.000Z,23.50
2018-09-08T11:16:25.445Z,23.50
2018-09-08T11:17:29.707Z,23.50
2018-09-08T11:18:33.988Z,23.50
2018-09-08T11:19:38.295Z,23.50
2018-09-08T11:20:42.760Z,23.50
2018-09-08T11:21:47.051Z,23.60
2018-09-08T11:22:51.699Z,23.50
2018-09-08T11:23:56.192Z,23.50
2018-09-08T11:25:00.610Z,23.60
2018-09-08T11:26:04.881Z,23.50
2018-09-08T11:27:09.248Z,23.60
2018-09-08T11:28:13.537Z,23.60
2018-09-08T11:29:17.809Z,23.60
2018-09-08T11:30:22.127Z,23.60
2018-09-08T11:31:26.417Z,23.60
2018-09-08T11:32:30.725Z,23.60
2018-09-08T11:33:35.182Z,23.60
2018-09-08T11:34:39.388Z,23.60
2018-09-08T11:35:43.766Z,23.60
2018-09-08T11:36:48.211Z,23.60
2018-09-08T11:37:52.636Z,23.60
2018-09-08T11:38:56.945Z,23.60
2018-09-08T11:40:01.398Z,23.60
2018-09-08T11:41:05.660Z,23.60
2018-09-08T11:42:09.964Z,23.60
2018-09-08T11:43:14.234Z,23.60
2018-09-08T11:44:18.657Z,23.60
2018-09-08T11:45:23.156Z,23.60
2018-09-08T11:46:27.634Z,23.70
2018-09-08T11:47:31.908Z,23.60
2018-09-08T11:48:36.223Z,23.60
2018-09-08T11:49:40.531Z,23.60
2018-09-08T11:50:44.957Z,23.60
2018-09-08T11:51:49.209Z,23.70
2018-09-08T11:52:53.558Z,23.60
2018-09-08T11:53:57.983Z,23.60
2018-09-08T11:55:02.252Z,23.60
2018-09-08T11:56:06.491Z,23.60
2018-09-08T11:57:10.900Z,23.60
2018-09-08T11:58:15.353Z,23.60
2018-09-08T11:59:19.571Z,23.60
2018-09-08T12:00:23.885Z,23.60
2018-09-08T12:01:28.309Z,23.60
2018-09-08T12:02:32.556Z,23.60
2018-09-08T12:03:36.883Z,23.60
2018-09-08T12:04:41.123Z,23.60
2018-09-08T12:05:45.356Z,23.60
2018-09-08T12:06:49.772Z,23.60
2018-09-08T12:07:54.114Z,23.60
2018-09-08T12:08:58.615Z,23.60
2018-09-08T12:10:03.071Z,23.60
2018-09-08T12:11:07.559Z,23.60
2018-09-08T12:12:11.799Z,23.60
2018-09-08T12:13:16.278Z,23.60
2018-09-08T12:14:20.584Z,23.60
2018-09-08T12:15:25.073Z,23.60
2018-09-08T12:16:29.497Z,23.60
2018-09-08T12:17:33.847Z,23.60
2018-09-08T12:18:38.322Z,23.60
2018-09-08T12:19:42.758Z,23.60
2018-09-08T12:20:47.158Z,23.50
2018-09-08T12:21:51.460Z,23.60
2018-09-08T12:22:55.732Z,23.60
2018-09-08T12:24:00.006Z,23.60
2018-09-08T12:25:04.348Z,23.60
2018-09-08T12:26:08.778Z,23.60
2018-09-08T12:27:13.038Z,23.60
2018-09-08T12:28:17.306Z,23.60
2018-09-08T12:29:21.671Z,23.60
2018-09-08T12:30:26.144Z,23.60
2018-09-08T12:31:30.613Z,23.60
2018-09-08T12:32:35.061Z,23.60
2018-09-08T12:33:39.387Z,23.60
2018-09-08T12:34:43.710Z,23.60
2018-09-08T12:35:47.990Z,23.60
2018-09-08T12:36:52.273Z,23.60
2018-09-08T12:37:56.764Z,23.60
2018-09-08T12:39:01.199Z,23.60
2018-09-08T12:40:05.431Z,23.60
2018-09-08T12:41:09.890Z,23.60
2018-09-08T12:42:14.153Z,23.60
2018-09-08T12:43:18.500Z,23.60
2018-09-08T12:44:22.875Z,23.60
2018-09-08T12:45:27.309Z,23.60
2018-09-08T12:46:31.814Z,23.60
2018-09-08T12:47:36.140Z,23.60
2018-09-08T12:48:40.364Z,23.60
2018-09-08T12:49:44.600Z,23.60
2018-09-08T12:50:49.112Z,23.60
2018-09-08T12:51:53.567Z,23.60
2018-09-08T12:52:58.031Z,23.60
2018-09-08T12:54:02.494Z,23.50
2018-09-08T12:55:06.757Z,23.60
2018-09-08T12:56:11.003Z,23.60
2018-09-08T12:57:15.468Z,23.60
2018-09-08T12:58:19.798Z,23.60
2018-09-08T12:59:24.354Z,23.60
2018-09-08T13:00:28.781Z,23.60
2018-09-08T13:01:33.390Z,23.60
2018-09-08T13:02:37.707Z,23.60
2018-09-08T13:03:42.477Z,23.60
2018-09-08T13:04:46.855Z,23.60
2018-09-08T13:05:51.137Z,23.60
2018-09-08T13:06:55.454Z,23.60
2018-09-08T13:08:00.150Z,23.60
2018-09-08T13:09:04.542Z,23.60
2018-09-08T13:10:09.145Z,23.60
2018-09-08T13:11:13.506Z,23.70
2018-09-08T13:12:17.847Z,23.60
2018-09-08T13:13:22.256Z,23.60
2018-09-08T13:14:27.059Z,23.60
2018-09-08T13:15:32.635Z,23.60
2018-09-08T13:16:37.058Z,23.60
2018-09-08T13:17:41.514Z,23.60
2018-09-08T13:18:45.813Z,23.60
2018-09-08T13:19:50.060Z,23.60
2018-09-08T13:20:54.467Z,23.60
2018-09-08T13:21:58.854Z,23.60
2018-09-08T13:23:03.293Z,23.60
2018-09-08T13:24:07.672Z,23.60
2018-09-08T13:25:11.971Z,23.60
2018-09-08T13:26:16.279Z,23.60
2018-09-08T13:27:20.679Z,23.60
2018-09-08T13:28:24.980Z,23.60
2018-09-08T13:29:29.607Z,23.60
2018-09-08T13:30:34.070Z,23.60
2018-09-08T13:31:38.487Z,23.60
2018-09-08T13:32:42.772Z,23.60
2018-09-08T13:33:47.088Z,23.60
2018-09-08T13:34:51.433Z,23.60
2018-09-08T13:35:55.830Z,23.60
2018-09-08T13:37:00.091Z,23.60
2018-09-08T13:38:04.380Z,23.60
2018-09-08T13:39:08.899Z,23.60
2018-09-08T13:40:13.279Z,23.60
2018-09-08T13:41:17.583Z,23.60
2018-09-08T13:42:22.034Z,23.60
2018-09-08T13:43:26.505Z,23.60
2018-09-08T13:44:30.860Z,23.60
2018-09-08T13:45:35.487Z,23.60
2018-09-08T13:46:39.739Z,23.60
2018-09-08T13:47:44.046Z,23.60
2018-09-08T13:48:48.364Z,23.60
2018-09-08T13:49:52.790Z,23.60